Pagrindinis puslapis
METAR-TAF:

METAR-TAF

Oro uostai :

Base Presidente Eduardo Frei Montalva, Čilė

platuma: 62-11-28S, ilguma: 58-59-11W, Aukštis: 45 m

Dabartinis oras

Ataskaita buvo paskelbta 23 minutes, ne 11:00 UTC
Vėjas 23 kt iš Šiaurės/Šiaurės Rytų
Temperatūra -2°C
Drėgmė 100%
Slėgis 996 hPa
Matomumas: 8000 m
Apsiniaukę ne aukštis 800 ft
sniegas

METAR: SCRM 311100Z 02023KT 8000 -SN OVC008 M02/M02 Q0996 NOSIG

Laikas: 07:23 (11:23 UTC)


TAF: trūkstamas

Orai ataskaitas ir orų prognozės (METAR, TAF).

turimą stotys yra geltonos ir raudonos taškus žemėlapyje.

Perkelti pele per norėdami pamatyti stoties vardą.

Tada spustelėkite, norėdami matyti oro stebėjimo ir prognozės.

Norėdami pakeisti žemėlapį: spustelėkite ant žalios mygtukų su juodo kryžiaus žemyn,; žalią mygtuką su brūkšneliu, jei norite nutolinti; arba žalių rodyklių gretimoms žemėlapius.


METAR-TAF: